createdAt,value
2019-05-23T00:01:00.748Z,18.4
2019-05-23T00:06:00.240Z,17.9
2019-05-23T00:11:00.840Z,18.1
2019-05-23T00:16:00.401Z,18.5
2019-05-23T00:21:00.420Z,18.3
2019-05-23T00:26:00.352Z,18.3
2019-05-23T00:31:00.394Z,18.8
2019-05-23T00:36:06.649Z,18.3
2019-05-23T00:41:06.719Z,18.3
2019-05-23T00:46:06.583Z,18
2019-05-23T00:51:06.305Z,18.2
2019-05-23T00:56:06.757Z,18.5
2019-05-23T01:01:07.783Z,18.1
2019-05-23T01:06:06.161Z,18.4
2019-05-23T01:11:06.276Z,18.1
2019-05-23T01:16:06.478Z,18.1
2019-05-23T01:21:06.238Z,18.2
2019-05-23T01:26:06.462Z,18.2
2019-05-23T01:31:16.848Z,17.4
2019-05-23T01:36:11.605Z,18
2019-05-23T01:41:10.895Z,17.3
2019-05-23T01:46:13.345Z,17.9
2019-05-23T01:51:10.890Z,18
2019-05-23T01:56:11.070Z,17.2
2019-05-23T02:01:10.973Z,17.4
2019-05-23T02:06:10.864Z,18.2
2019-05-23T02:11:11.378Z,17.5
2019-05-23T02:16:11.101Z,17.6
2019-05-23T02:21:11.194Z,17.9
2019-05-23T02:26:14.069Z,18.3
2019-05-23T02:31:13.785Z,18
2019-05-23T02:36:13.746Z,17.6
2019-05-23T02:41:14.481Z,18.1
2019-05-23T02:46:15.620Z,17.7
2019-05-23T02:51:24.913Z,17.8
2019-05-23T02:56:15.975Z,18.3
2019-05-23T03:06:13.956Z,18.6
2019-05-23T03:11:34.137Z,18.1
2019-05-23T03:16:22.716Z,18.5
2019-05-23T03:21:15.290Z,18.6
2019-05-23T03:31:45.029Z,18.7
2019-05-23T03:36:13.763Z,18.4
2019-05-23T03:41:13.722Z,18.6
2019-05-23T03:46:13.709Z,19
2019-05-23T03:51:13.971Z,19.1
2019-05-23T03:56:13.914Z,19.3
2019-05-23T04:01:13.811Z,19
2019-05-23T04:06:13.712Z,19.4
2019-05-23T04:11:13.939Z,19.7
2019-05-23T04:16:13.709Z,19.7
2019-05-23T04:21:13.655Z,20
2019-05-23T04:26:13.654Z,20.1
2019-05-23T04:31:14.007Z,20.3
2019-05-23T04:36:13.862Z,20.4
2019-05-23T04:41:13.698Z,20
2019-05-23T04:46:13.670Z,20.9
2019-05-23T04:51:15.038Z,21.3
2019-05-23T04:56:13.651Z,21.4
2019-05-23T05:01:14.209Z,21.2
2019-05-23T05:06:13.648Z,21.1
2019-05-23T05:11:13.620Z,21.3
2019-05-23T05:16:13.610Z,21.5
2019-05-23T05:21:13.607Z,21.6
2019-05-23T05:26:21.948Z,21.6
2019-05-23T05:31:13.776Z,21.8
2019-05-23T05:36:14.030Z,21.8
2019-05-23T05:41:13.648Z,20.8
2019-05-23T05:46:14.865Z,21.3
2019-05-23T05:51:14.015Z,22.1
2019-05-23T05:56:13.981Z,21.8
2019-05-23T06:01:13.959Z,22.3
2019-05-23T06:06:13.531Z,21.9
2019-05-23T06:11:13.834Z,21.9
2019-05-23T06:16:13.558Z,21.8
2019-05-23T06:21:13.856Z,23.2
2019-05-23T06:26:13.651Z,22.9
2019-05-23T06:31:14.503Z,23
2019-05-23T06:36:13.868Z,23.8
2019-05-23T06:41:13.855Z,23.6
2019-05-23T06:46:14.145Z,23.5
2019-05-23T06:51:13.856Z,24.2
2019-05-23T06:56:14.407Z,23.4
2019-05-23T07:01:14.336Z,23.6
2019-05-23T07:06:20.274Z,23.9
2019-05-23T07:11:14.813Z,24.2
2019-05-23T07:16:13.557Z,25
2019-05-23T07:21:13.950Z,24.7
2019-05-23T07:26:14.563Z,23.3
2019-05-23T07:31:13.540Z,23.8
2019-05-23T07:36:13.914Z,23.3
2019-05-23T07:41:13.786Z,24.6
2019-05-23T07:46:13.475Z,25.9
2019-05-23T07:51:13.736Z,25.4
2019-05-23T07:56:13.760Z,25.9
2019-05-23T08:01:13.775Z,25.9
2019-05-23T08:06:14.258Z,24.8
2019-05-23T08:11:13.714Z,26.6
2019-05-23T08:16:13.658Z,25.9
2019-05-23T08:21:13.481Z,26.1
2019-05-23T08:26:13.608Z,26
2019-05-23T08:31:13.832Z,25.3
2019-05-23T08:36:13.534Z,24.5
2019-05-23T08:41:13.752Z,24.8
2019-05-23T08:46:13.838Z,24.3
2019-05-23T08:51:13.594Z,25
2019-05-23T08:56:27.640Z,24.6
2019-05-23T09:01:13.700Z,24.2
2019-05-23T09:06:13.652Z,24
2019-05-23T09:11:13.681Z,24.5
2019-05-23T09:16:13.652Z,24.2
2019-05-23T09:21:13.567Z,24.2
2019-05-23T09:26:13.485Z,26.2
2019-05-23T09:31:13.937Z,26
2019-05-23T09:36:13.673Z,25.5
2019-05-23T09:41:13.543Z,25.1
2019-05-23T09:46:13.504Z,24.9
2019-05-23T09:51:13.495Z,24.8
2019-05-23T09:56:13.468Z,25.8
2019-05-23T10:01:14.263Z,24.4
2019-05-23T10:06:13.502Z,25.6
2019-05-23T10:11:13.545Z,27
2019-05-23T10:16:14.109Z,28.1
2019-05-23T10:21:13.431Z,27
2019-05-23T10:26:13.600Z,26.8
2019-05-23T10:31:13.414Z,29.1
2019-05-23T10:36:15.785Z,29.9
2019-05-23T10:41:13.445Z,28.8
2019-05-23T10:46:13.411Z,29.8
2019-05-23T10:51:13.493Z,26.2
2019-05-23T10:56:13.608Z,26.6
2019-05-23T11:01:13.727Z,26.3
2019-05-23T11:06:30.148Z,25.9
2019-05-23T11:11:14.963Z,26.5
2019-05-23T11:16:13.484Z,26.5
2019-05-23T11:21:13.550Z,26.9
2019-05-23T11:26:16.088Z,27.9
2019-05-23T11:31:13.651Z,28.4
2019-05-23T11:36:13.389Z,28.4
2019-05-23T11:41:14.557Z,28.9
2019-05-23T11:46:13.404Z,28.1
2019-05-23T11:51:13.526Z,27.7
2019-05-23T11:56:13.389Z,26.9
2019-05-23T12:01:20.410Z,27.3
2019-05-23T12:06:18.045Z,26.6
2019-05-23T12:11:13.407Z,26.3
2019-05-23T12:16:13.512Z,27
2019-05-23T12:21:14.508Z,29.1
2019-05-23T12:26:13.515Z,30.7
2019-05-23T12:31:17.539Z,30.7
2019-05-23T12:36:13.361Z,29.3
2019-05-23T12:41:13.287Z,30
2019-05-23T12:46:13.406Z,30
2019-05-23T12:51:13.380Z,29.3
2019-05-23T12:56:13.408Z,30.8
2019-05-23T13:01:13.679Z,29
2019-05-23T13:06:13.405Z,29.8
2019-05-23T13:11:13.370Z,31.6
2019-05-23T13:16:13.484Z,30
2019-05-23T13:21:14.368Z,31.4
2019-05-23T13:26:13.302Z,31.4
2019-05-23T13:31:13.280Z,32.4
2019-05-23T13:36:13.272Z,30.6
2019-05-23T13:41:13.293Z,32.3
2019-05-23T13:46:13.551Z,31.4
2019-05-23T13:51:13.523Z,28.3
2019-05-23T13:56:13.259Z,29.5
2019-05-23T14:01:18.130Z,30.5
2019-05-23T14:06:13.177Z,27.3
2019-05-23T14:11:13.352Z,27.7
2019-05-23T14:16:13.360Z,26.6
2019-05-23T14:21:13.215Z,26.9
2019-05-23T14:26:13.539Z,26.4
2019-05-23T14:31:13.358Z,26
2019-05-23T14:36:13.447Z,26.3
2019-05-23T14:41:13.414Z,26.1
2019-05-23T14:46:13.379Z,26.3
2019-05-23T14:51:13.238Z,26
2019-05-23T14:56:13.230Z,25.5
2019-05-23T15:01:13.243Z,25.5
2019-05-23T15:06:13.220Z,25.5
2019-05-23T15:11:13.315Z,25.7
2019-05-23T15:16:13.601Z,25.3
2019-05-23T15:21:13.476Z,25.3
2019-05-23T15:26:32.635Z,25.3
2019-05-23T15:31:13.583Z,25.5
2019-05-23T15:36:14.520Z,25.3
2019-05-23T15:41:13.337Z,25.6
2019-05-23T15:46:13.136Z,26.3
2019-05-23T15:51:13.185Z,27
2019-05-23T15:56:38.864Z,27.3
2019-05-23T16:01:13.273Z,28.2
2019-05-23T16:06:13.683Z,29.2
2019-05-23T16:11:16.569Z,29.5
2019-05-23T16:16:13.404Z,28
2019-05-23T16:21:13.256Z,29.2
2019-05-23T16:26:21.815Z,29.2
2019-05-23T16:31:13.123Z,28.9
2019-05-23T16:36:13.540Z,28.4
2019-05-23T16:41:13.142Z,27.5
2019-05-23T16:46:13.255Z,26.8
2019-05-23T16:51:13.283Z,25.5
2019-05-23T17:01:46.994Z,25
2019-05-23T17:06:25.395Z,24
2019-05-23T17:11:29.238Z,23.8
2019-05-23T17:16:25.580Z,24
2019-05-23T17:21:25.441Z,23.6
2019-05-23T17:26:25.344Z,23.6
2019-05-23T17:31:25.803Z,24
2019-05-23T17:36:25.490Z,23.2
2019-05-23T17:41:25.336Z,23.8
2019-05-23T17:46:25.294Z,23.5
2019-05-23T17:51:25.360Z,23.3
2019-05-23T17:56:25.264Z,23.4
2019-05-23T18:01:25.326Z,22.9
2019-05-23T18:06:25.621Z,22.8
2019-05-23T18:11:25.256Z,22.9
2019-05-23T18:16:25.334Z,23.2
2019-05-23T18:21:25.341Z,22.6
2019-05-23T18:26:25.232Z,22.9
2019-05-23T18:31:27.749Z,22.5
2019-05-23T18:36:25.548Z,22.7
2019-05-23T18:41:25.286Z,21.8
2019-05-23T18:46:25.266Z,22.2
2019-05-23T18:51:25.226Z,22.4
2019-05-23T18:56:25.286Z,22.1
2019-05-23T19:01:25.329Z,22
2019-05-23T19:06:25.200Z,22.5
2019-05-23T19:11:35.160Z,22.4
2019-05-23T19:16:25.380Z,22.2
2019-05-23T19:21:25.256Z,21.9
2019-05-23T19:26:25.473Z,22.4
2019-05-23T19:31:26.689Z,22.5
2019-05-23T19:43:09.879Z,22.3
2019-05-23T19:54:43.121Z,22.3
2019-05-23T19:59:42.863Z,22.6
2019-05-23T20:04:45.750Z,22.1
2019-05-23T20:09:42.900Z,22.3
2019-05-23T20:14:42.981Z,21.8
2019-05-23T20:19:42.962Z,22.4
2019-05-23T20:24:42.952Z,21.8
2019-05-23T20:29:43.185Z,21.8
2019-05-23T20:34:42.876Z,21.9
2019-05-23T20:39:42.927Z,21.4
2019-05-23T20:44:42.920Z,21.5
2019-05-23T20:57:26.823Z,21.4
2019-05-23T21:02:26.877Z,20.9
2019-05-23T21:07:26.845Z,21.3
2019-05-23T21:12:43.382Z,21.5
2019-05-23T21:17:26.818Z,21.1
2019-05-23T21:27:31.562Z,20.9
2019-05-23T21:32:31.594Z,21
2019-05-23T21:37:33.391Z,21.6
2019-05-23T21:42:46.528Z,21
2019-05-23T21:47:31.680Z,21
2019-05-23T21:52:31.550Z,21.1
2019-05-23T21:57:31.527Z,21.1
2019-05-23T22:02:31.551Z,21.4
2019-05-23T22:07:31.508Z,21.3
2019-05-23T22:12:31.771Z,21.4
2019-05-23T22:17:31.625Z,21.6
2019-05-23T22:22:31.532Z,21.2
2019-05-23T22:27:31.873Z,21.1
2019-05-23T22:32:31.817Z,21.1
2019-05-23T22:37:31.584Z,21
2019-05-23T22:42:31.860Z,21.4
2019-05-23T22:47:31.636Z,21
2019-05-23T22:52:31.447Z,21.1
2019-05-23T22:57:31.628Z,21
2019-05-23T23:02:31.462Z,20.9
2019-05-23T23:07:31.560Z,20.6
2019-05-23T23:12:31.491Z,20.9
2019-05-23T23:17:31.637Z,21.1
2019-05-23T23:22:31.618Z,21
2019-05-23T23:27:31.482Z,20.8
2019-05-23T23:32:31.859Z,21
2019-05-23T23:37:31.453Z,21
2019-05-23T23:42:31.461Z,20.3
2019-05-23T23:47:31.465Z,20.7
2019-05-23T23:52:31.459Z,21.1
2019-05-23T23:57:31.409Z,20.7
